createdAt,value
2022-10-17T00:01:26.326Z,9.1
2022-10-17T00:02:29.545Z,9.5
2022-10-17T00:06:36.569Z,9.6
2022-10-17T00:10:46.694Z,10.5
2022-10-17T00:14:53.728Z,10.4
2022-10-17T00:16:57.255Z,9.2
2022-10-17T00:19:00.797Z,9
2022-10-17T00:21:06.907Z,9.6
2022-10-17T00:23:07.859Z,10.1
2022-10-17T00:25:31.816Z,11.6
2022-10-17T00:27:18.008Z,9.9
2022-10-17T00:29:21.519Z,11
2022-10-17T00:31:25.049Z,11
2022-10-17T00:33:28.547Z,11.4
2022-10-17T00:35:32.122Z,10.6
2022-10-17T00:37:35.639Z,11.3
2022-10-17T00:39:42.265Z,13
2022-10-17T00:41:45.760Z,12.3
2022-10-17T00:43:49.310Z,13.1
2022-10-17T00:46:05.876Z,12.8
2022-10-17T00:47:56.346Z,13.5
2022-10-17T00:52:04.924Z,14
2022-10-17T00:54:11.545Z,15.4
2022-10-17T00:56:15.081Z,13.8
2022-10-17T00:58:18.614Z,13.8
2022-10-17T01:00:37.031Z,16.5
2022-10-17T01:02:40.540Z,14.3
2022-10-17T01:04:44.075Z,15.5
2022-10-17T01:06:50.700Z,16.4
2022-10-17T01:08:54.212Z,15.8
2022-10-17T01:10:57.758Z,14.4
2022-10-17T01:13:01.315Z,15.2
2022-10-17T01:15:04.798Z,13.5
2022-10-17T01:17:08.307Z,14.8
2022-10-17T01:19:11.886Z,15
2022-10-17T01:21:18.390Z,14.4
2022-10-17T01:23:21.944Z,14.8
2022-10-17T01:25:25.465Z,14.4
2022-10-17T01:27:28.968Z,15.2
2022-10-17T01:29:32.467Z,13.9
2022-10-17T01:31:35.976Z,13.7
2022-10-17T01:33:39.499Z,13.8
2022-10-17T01:35:46.027Z,14.5
2022-10-17T01:37:49.534Z,14.2
2022-10-17T01:41:56.544Z,13.8
2022-10-17T01:44:00.026Z,13.5
2022-10-17T01:46:03.563Z,13.5
2022-10-17T01:48:07.157Z,13.5
2022-10-17T01:50:13.707Z,14.4
2022-10-17T01:52:17.188Z,14.3
2022-10-17T01:54:20.720Z,14.2
2022-10-17T01:55:24.036Z,14.8
2022-10-17T01:57:27.691Z,14.5
2022-10-17T01:59:31.078Z,14.3
2022-10-17T02:01:34.661Z,13.8
2022-10-17T02:03:41.194Z,16.4
2022-10-17T02:05:44.701Z,15.1
2022-10-17T02:07:48.226Z,16.4
2022-10-17T02:09:51.746Z,16
2022-10-17T02:11:55.266Z,15.6
2022-10-17T02:13:58.815Z,14.6
2022-10-17T02:16:02.309Z,16.8
2022-10-17T02:18:08.904Z,17.9
2022-10-17T02:20:12.387Z,15.4
2022-10-17T02:22:15.918Z,16.6
2022-10-17T02:24:19.465Z,16.1
2022-10-17T02:26:22.990Z,16.4
2022-10-17T02:28:26.555Z,17.4
2022-10-17T02:30:30.046Z,15.6
2022-10-17T02:35:09.087Z,16.6
2022-10-17T02:36:43.680Z,15.8
2022-10-17T02:40:50.761Z,16.1
2022-10-17T02:47:04.379Z,17.1
2022-10-17T02:51:11.572Z,17
2022-10-17T02:52:14.722Z,18.4
2022-10-17T02:54:18.265Z,19.2
2022-10-17T02:56:21.803Z,19.5
2022-10-17T02:58:25.321Z,17.4
2022-10-17T03:00:31.948Z,18.5
2022-10-17T03:02:35.455Z,17.4
2022-10-17T03:04:38.986Z,17.3
2022-10-17T03:06:42.516Z,18.4
2022-10-17T03:08:46.071Z,18.1
2022-10-17T03:10:49.558Z,17.1
2022-10-17T03:12:53.071Z,18
2022-10-17T03:14:59.665Z,18.9
2022-10-17T03:17:03.204Z,17
2022-10-17T03:19:06.752Z,17.9
2022-10-17T03:21:10.251Z,16.3
2022-10-17T03:23:13.758Z,18.2
2022-10-17T03:25:17.316Z,17.8
2022-10-17T03:27:20.825Z,17
2022-10-17T03:29:27.445Z,19
2022-10-17T03:31:30.918Z,19.1
2022-10-17T03:33:34.484Z,17
2022-10-17T03:35:38.047Z,16.6
2022-10-17T03:37:41.480Z,16.6
2022-10-17T03:39:45.027Z,17.2
2022-10-17T03:41:48.516Z,16.7
2022-10-17T03:43:55.122Z,17.2
2022-10-17T03:45:58.611Z,16.4
2022-10-17T03:48:02.121Z,16.5
2022-10-17T03:49:05.424Z,17.6
2022-10-17T03:51:08.945Z,16.2
2022-10-17T03:53:12.451Z,15.9
2022-10-17T03:55:15.939Z,16.4
2022-10-17T03:57:22.522Z,17.6
2022-10-17T03:59:26.039Z,16.3
2022-10-17T04:01:29.686Z,17.2
2022-10-17T04:03:33.051Z,17
2022-10-17T04:05:36.570Z,18.2
2022-10-17T04:07:40.071Z,17.6
2022-10-17T04:09:43.587Z,18.8
2022-10-17T04:11:50.184Z,18.5
2022-10-17T04:20:04.212Z,18.9
2022-10-17T04:22:07.697Z,16.8
2022-10-17T04:26:17.773Z,22.1
2022-10-17T04:28:21.482Z,19.7
2022-10-17T04:32:28.559Z,19
2022-10-17T04:34:31.794Z,17
2022-10-17T04:38:38.846Z,18.8
2022-10-17T04:40:45.437Z,21.2
2022-10-17T04:42:48.941Z,19.2
2022-10-17T04:44:52.450Z,18.8
2022-10-17T04:47:16.714Z,21.1
2022-10-17T04:49:20.238Z,17.8
2022-10-17T04:51:25.952Z,18.2
2022-10-17T04:53:30.320Z,19.3
2022-10-17T04:59:40.831Z,17.4
2022-10-17T05:01:44.345Z,17.7
2022-10-17T05:03:47.874Z,17.1
2022-10-17T05:05:51.363Z,17.1
2022-10-17T05:07:57.951Z,19
2022-10-17T05:10:01.516Z,16.9
2022-10-17T05:12:08.016Z,16.7
2022-10-17T05:14:08.446Z,17.9
2022-10-17T05:16:11.936Z,19.2
2022-10-17T05:20:18.948Z,17.7
2022-10-17T05:22:25.505Z,19.1
2022-10-17T05:24:29.009Z,17.5
2022-10-17T05:26:32.517Z,17.8
2022-10-17T05:28:36.113Z,16.9
2022-10-17T05:30:39.557Z,17
2022-10-17T05:32:42.975Z,17.7
2022-10-17T05:34:46.504Z,15.5
2022-10-17T05:36:53.058Z,16.8
2022-10-17T05:38:56.532Z,17.7
2022-10-17T05:41:00.058Z,15.6
2022-10-17T05:42:03.389Z,17.4
2022-10-17T05:44:06.815Z,16.7
2022-10-17T05:46:10.299Z,16.4
2022-10-17T05:48:13.796Z,16.6
2022-10-17T05:50:20.356Z,16.7
2022-10-17T05:52:23.833Z,16.5
2022-10-17T05:56:30.818Z,15.3
2022-10-17T06:00:37.807Z,13.8
2022-10-17T06:02:41.279Z,14.9
2022-10-17T06:04:47.829Z,14.1
2022-10-17T06:06:51.327Z,13.2
2022-10-17T06:10:58.286Z,12.6
2022-10-17T06:13:01.775Z,11.9
2022-10-17T06:17:13.411Z,11.5
2022-10-17T06:19:15.272Z,12
2022-10-17T06:23:22.199Z,12
2022-10-17T06:25:25.672Z,10.9
2022-10-17T06:27:29.128Z,10.6
2022-10-17T06:29:32.606Z,11.5
2022-10-17T06:33:42.648Z,11.5
2022-10-17T06:35:46.126Z,11.3
2022-10-17T06:37:49.589Z,11.4
2022-10-17T06:38:52.860Z,11.1
2022-10-17T06:40:56.363Z,11
2022-10-17T06:42:59.829Z,11.1
2022-10-17T06:45:04.890Z,10.2
2022-10-17T06:47:12.716Z,11
2022-10-17T06:49:14.833Z,10.6
2022-10-17T06:51:18.305Z,9.6
2022-10-17T06:53:21.785Z,9.7
2022-10-17T06:55:25.229Z,9.8
2022-10-17T06:57:28.952Z,9.7
2022-10-17T06:59:32.187Z,9.6
2022-10-17T07:01:40.693Z,10.4
2022-10-17T07:03:42.184Z,9.4
2022-10-17T07:05:45.687Z,7.7
2022-10-17T07:07:51.030Z,7.9
2022-10-17T07:09:52.653Z,8.3
2022-10-17T07:11:56.081Z,8.6
2022-10-17T07:13:59.528Z,7.2
2022-10-17T07:16:06.078Z,7.8
2022-10-17T07:18:09.574Z,8.2
2022-10-17T07:20:13.184Z,7.8
2022-10-17T07:22:16.495Z,8.2
2022-10-17T07:30:33.395Z,8.6
2022-10-17T07:32:36.843Z,7.8
2022-10-17T07:34:40.289Z,7.6
2022-10-17T07:35:43.543Z,8.3
2022-10-17T07:37:46.990Z,7.3
2022-10-17T07:39:50.457Z,7.3
2022-10-17T07:44:00.472Z,6.7
2022-10-17T07:50:10.808Z,7.3
2022-10-17T07:52:14.248Z,6.7
2022-10-17T07:54:17.697Z,6.7
2022-10-17T07:56:21.113Z,6.5
2022-10-17T07:58:27.670Z,7
2022-10-17T08:00:31.323Z,7
2022-10-17T08:02:34.532Z,7.1
2022-10-17T08:04:37.939Z,6.5
2022-10-17T08:06:41.404Z,7.9
2022-10-17T08:08:44.838Z,6.3
2022-10-17T08:10:48.267Z,6.8
2022-10-17T08:12:54.808Z,6.4
2022-10-17T08:14:58.226Z,5.9
2022-10-17T08:17:01.694Z,6.9
2022-10-17T08:21:08.612Z,6.8
2022-10-17T08:23:11.971Z,5.7
2022-10-17T08:27:21.917Z,6.2
2022-10-17T08:31:28.805Z,6
2022-10-17T08:33:56.745Z,6.9
2022-10-17T08:36:00.187Z,6.8
2022-10-17T08:38:03.651Z,5.6
2022-10-17T08:40:10.119Z,6.3
2022-10-17T08:42:13.549Z,5.1
2022-10-17T08:44:16.949Z,5.9
2022-10-17T08:46:20.418Z,6.5
2022-10-17T08:48:23.821Z,5.7
2022-10-17T08:50:27.385Z,6.2
2022-10-17T08:52:30.671Z,6.9
2022-10-17T08:54:37.184Z,7
2022-10-17T08:56:49.152Z,6.8
2022-10-17T08:58:44.097Z,6.8
2022-10-17T09:00:47.515Z,8.4
2022-10-17T09:02:50.983Z,7.9
2022-10-17T09:04:54.342Z,8
2022-10-17T09:06:57.730Z,8.2
2022-10-17T09:09:04.264Z,9.3
2022-10-17T09:11:07.712Z,10.1
2022-10-17T09:13:11.142Z,8.5
2022-10-17T09:15:14.555Z,8.8
2022-10-17T09:17:18.012Z,9.1
2022-10-17T09:19:21.402Z,10.7
2022-10-17T09:21:24.827Z,9.3
2022-10-17T09:27:38.251Z,10.7
2022-10-17T09:28:41.599Z,11.1
2022-10-17T09:30:45.904Z,10.8
2022-10-17T09:32:48.427Z,10.3
2022-10-17T09:34:51.865Z,10
2022-10-17T09:36:58.388Z,9.3
2022-10-17T09:39:01.867Z,9.9
2022-10-17T09:41:20.012Z,10.2
2022-10-17T09:43:08.684Z,11.1
2022-10-17T09:45:12.091Z,9.9
2022-10-17T09:47:15.527Z,10.4
2022-10-17T09:49:18.987Z,10.5
2022-10-17T09:51:27.988Z,9.8
2022-10-17T09:53:28.858Z,11
2022-10-17T09:55:32.267Z,8.3
2022-10-17T09:57:35.686Z,9.9
2022-10-17T09:59:39.133Z,9.1
2022-10-17T10:01:42.565Z,9.3
2022-10-17T10:03:45.978Z,9.2
2022-10-17T10:05:52.522Z,9.6
2022-10-17T10:07:55.967Z,9.5
2022-10-17T10:09:59.383Z,9
2022-10-17T10:14:06.243Z,9.1
2022-10-17T10:18:13.128Z,9.2
2022-10-17T10:22:23.105Z,10.1
2022-10-17T10:27:34.066Z,10.6
2022-10-17T10:29:36.630Z,10.4
2022-10-17T10:33:49.721Z,9.4
2022-10-17T10:35:50.043Z,10.6
2022-10-17T10:37:53.456Z,8.8
2022-10-17T10:39:56.902Z,10.7
2022-10-17T10:42:00.281Z,9.3
2022-10-17T10:44:03.750Z,9.2
2022-10-17T10:46:07.182Z,9.4
2022-10-17T10:48:13.679Z,9.2
2022-10-17T10:50:17.156Z,8.1
2022-10-17T10:52:20.580Z,9
2022-10-17T10:54:24.024Z,8.2
2022-10-17T10:56:27.433Z,9.2
2022-10-17T10:58:30.833Z,8.7
2022-10-17T11:00:34.334Z,7.7
2022-10-17T11:02:40.824Z,8.5
2022-10-17T11:04:44.245Z,7.4
2022-10-17T11:06:47.651Z,8.4
2022-10-17T11:08:51.097Z,7.9
2022-10-17T11:10:54.532Z,8.4
2022-10-17T11:12:57.935Z,7.2
2022-10-17T11:15:01.293Z,7.5
2022-10-17T11:17:07.833Z,6.8
2022-10-17T11:19:11.271Z,6.4
2022-10-17T11:21:14.712Z,6.4
2022-10-17T11:22:17.968Z,6.8
2022-10-17T11:24:21.353Z,5.6
2022-10-17T11:26:24.831Z,5.8
2022-10-17T11:28:28.252Z,4.7
2022-10-17T11:30:34.824Z,5.2
2022-10-17T11:32:38.164Z,4.7
2022-10-17T11:34:41.614Z,4.7
2022-10-17T11:36:44.982Z,5.1
2022-10-17T11:38:48.437Z,4.9
2022-10-17T11:40:51.855Z,4.8
2022-10-17T11:42:55.317Z,5
2022-10-17T11:45:01.733Z,4.9
2022-10-17T11:49:08.642Z,6.1
2022-10-17T11:53:15.449Z,5.6
2022-10-17T11:55:18.891Z,4.2
2022-10-17T11:57:22.335Z,4.3
2022-10-17T11:59:29.890Z,5
2022-10-17T12:01:32.287Z,4.6
2022-10-17T12:03:35.695Z,4.5
2022-10-17T12:05:39.127Z,4.5
2022-10-17T12:11:49.372Z,4.9
2022-10-17T12:13:55.910Z,5.1
2022-10-17T12:15:59.331Z,3.1
2022-10-17T12:18:02.751Z,3.8
2022-10-17T12:22:30.147Z,3.8
2022-10-17T12:26:39.952Z,3.4
2022-10-17T12:28:43.391Z,3.5
2022-10-17T12:30:46.786Z,3.1
2022-10-17T12:33:04.311Z,3.9
2022-10-17T12:34:53.605Z,3.1
2022-10-17T12:36:57.019Z,3.1
2022-10-17T12:41:08.468Z,3
2022-10-17T12:43:11.836Z,2.9
2022-10-17T12:45:15.239Z,2.4
2022-10-17T12:47:18.631Z,2.8
2022-10-17T12:49:22.058Z,2.7
2022-10-17T12:53:28.866Z,3.8
2022-10-17T12:55:35.386Z,3.6
2022-10-17T12:57:38.762Z,3.1
2022-10-17T12:59:42.191Z,3.7
2022-10-17T13:01:46.264Z,3.7
2022-10-17T13:03:49.005Z,4.2
2022-10-17T13:10:02.330Z,4.3
2022-10-17T13:12:05.747Z,4
2022-10-17T13:14:09.156Z,3.9
2022-10-17T13:17:15.803Z,4.1
2022-10-17T13:19:19.171Z,4.8
2022-10-17T13:21:22.602Z,4.1
2022-10-17T13:23:29.117Z,5.2
2022-10-17T13:25:34.634Z,4.7
2022-10-17T13:27:35.941Z,5.9
2022-10-17T13:29:39.377Z,6.2
2022-10-17T13:31:42.745Z,4.7
2022-10-17T13:35:59.932Z,5.2
2022-10-17T13:37:56.068Z,5
2022-10-17T13:40:07.081Z,4.9
2022-10-17T13:42:02.854Z,5.7
2022-10-17T13:44:06.247Z,6.6
2022-10-17T13:46:32.420Z,7.9
2022-10-17T13:48:13.044Z,6
2022-10-17T13:50:39.677Z,6.2
2022-10-17T13:52:22.964Z,8.4
2022-10-17T13:54:26.398Z,6.7
2022-10-17T13:56:30.215Z,9.2
2022-10-17T13:58:33.193Z,9.7
2022-10-17T14:00:36.643Z,12.7
2022-10-17T14:02:40.003Z,8.7
2022-10-17T14:05:11.673Z,9.8
2022-10-17T14:06:52.135Z,7.9
2022-10-17T14:11:59.849Z,10.8
2022-10-17T14:14:03.251Z,8.1
2022-10-17T14:16:06.673Z,10.3
2022-10-17T14:18:10.047Z,10.3
2022-10-17T14:22:19.999Z,13.2
2022-10-17T14:24:23.331Z,9.3
2022-10-17T14:28:30.170Z,8.7
2022-10-17T14:30:55.306Z,9.5
2022-10-17T14:32:36.925Z,8.7
2022-10-17T14:34:43.362Z,7.9
2022-10-17T14:36:46.722Z,9
2022-10-17T14:38:50.132Z,7.6
2022-10-17T14:41:00.945Z,7.6
2022-10-17T14:42:56.928Z,7.5
2022-10-17T14:45:00.330Z,7.4
2022-10-17T14:47:30.349Z,7.4
2022-10-17T14:49:11.572Z,7.6
2022-10-17T14:53:16.848Z,6.1
2022-10-17T14:55:37.398Z,7.2
2022-10-17T14:57:23.617Z,6.5
2022-10-17T15:03:36.886Z,6
2022-10-17T15:08:46.843Z,6.7
2022-10-17T15:10:50.210Z,6.1
2022-10-17T15:12:58.906Z,5.9
2022-10-17T15:14:57.042Z,6.2
2022-10-17T15:17:03.524Z,5.6
2022-10-17T15:19:06.929Z,5.4
2022-10-17T15:21:25.668Z,5.2
2022-10-17T15:23:13.735Z,6.5
2022-10-17T15:25:17.101Z,5
2022-10-17T15:27:20.513Z,5.9
2022-10-17T15:29:23.894Z,6.6
2022-10-17T15:31:30.346Z,6.3
2022-10-17T15:33:33.702Z,7.1
2022-10-17T15:35:37.228Z,7.4
2022-10-17T15:37:40.447Z,8.5
2022-10-17T15:39:43.884Z,8.6
2022-10-17T15:41:47.259Z,8
2022-10-17T15:45:57.049Z,7.7
2022-10-17T15:48:00.459Z,7
2022-10-17T15:52:07.232Z,8.3
2022-10-17T15:56:14.043Z,8.9
2022-10-17T15:58:17.343Z,7.3
2022-10-17T16:00:23.828Z,8
2022-10-17T16:02:27.262Z,8
2022-10-17T16:04:30.655Z,9.8
2022-10-17T16:06:54.638Z,8.8
2022-10-17T16:08:58.027Z,8.2
2022-10-17T16:11:01.476Z,8.6
2022-10-17T16:13:07.929Z,9.2
2022-10-17T16:15:11.372Z,9.3
2022-10-17T16:17:14.787Z,9.7
2022-10-17T16:19:18.184Z,9.7
2022-10-17T16:21:21.657Z,9.6
2022-10-17T16:23:24.991Z,9.7
2022-10-17T16:25:28.432Z,11
2022-10-17T16:27:34.919Z,11.3
2022-10-17T16:33:45.206Z,13.4
2022-10-17T16:35:48.619Z,12.3
2022-10-17T16:39:55.485Z,13.4
2022-10-17T16:42:01.968Z,15.8
2022-10-17T16:44:05.427Z,15.8
2022-10-17T16:46:08.851Z,23.3
2022-10-17T16:50:15.715Z,18.7
2022-10-17T16:52:19.361Z,21.2
2022-10-17T16:54:22.575Z,19.3
2022-10-17T16:56:29.131Z,20.3
2022-10-17T16:58:32.552Z,20.7
2022-10-17T17:00:36.011Z,19.3
2022-10-17T17:01:39.232Z,22.4
2022-10-17T17:03:42.682Z,23.9
2022-10-17T17:05:46.109Z,28.1
2022-10-17T17:07:49.565Z,23
2022-10-17T17:09:56.054Z,22
2022-10-17T17:11:59.506Z,19.1
2022-10-17T17:14:02.947Z,18.1
2022-10-17T17:16:06.368Z,16.9
2022-10-17T17:18:10.321Z,16.8
2022-10-17T17:20:13.229Z,13.9
2022-10-17T17:22:16.648Z,15.1
2022-10-17T17:24:23.157Z,16
2022-10-17T17:26:26.561Z,15
2022-10-17T17:28:30.047Z,14.5
2022-10-17T17:30:33.396Z,15.7
2022-10-17T17:32:36.823Z,14
2022-10-17T17:34:40.281Z,14
2022-10-17T17:36:43.657Z,13.7
2022-10-17T17:38:50.204Z,14.3
2022-10-17T17:40:53.612Z,13.4
2022-10-17T17:42:57.086Z,13.9
2022-10-17T17:45:00.508Z,13.7
2022-10-17T17:47:03.897Z,13.8
2022-10-17T17:51:10.729Z,13.7
2022-10-17T17:53:17.243Z,16.2
2022-10-17T17:55:20.661Z,15.4
2022-10-17T17:57:24.005Z,14.4
2022-10-17T18:04:37.524Z,16.4
2022-10-17T18:06:44.059Z,16.7
2022-10-17T18:08:47.453Z,16.5
2022-10-17T18:10:50.892Z,15.2
2022-10-17T18:12:54.337Z,17.6
2022-10-17T18:14:57.769Z,17.9
2022-10-17T18:17:01.212Z,16.5
2022-10-17T18:19:06.743Z,16.8
2022-10-17T18:21:11.117Z,18.3
2022-10-17T18:23:14.525Z,17.5
2022-10-17T18:25:17.942Z,18.7
2022-10-17T18:27:21.375Z,18.5
2022-10-17T18:29:24.805Z,17.5
2022-10-17T18:31:28.240Z,17.7
2022-10-17T18:33:31.652Z,20.4
2022-10-17T18:35:38.239Z,23.5
2022-10-17T18:39:46.510Z,20.2
2022-10-17T18:41:49.943Z,21.2
2022-10-17T18:43:53.372Z,20
2022-10-17T18:45:56.805Z,19.4
2022-10-17T18:48:00.232Z,21.7
2022-10-17T18:50:06.780Z,32.6
2022-10-17T18:52:10.182Z,27.2
2022-10-17T18:54:13.604Z,30.8
2022-10-17T18:55:16.920Z,32.7
2022-10-17T18:57:22.627Z,24.5
2022-10-17T18:59:23.776Z,23.6
2022-10-17T19:01:27.308Z,24.4
2022-10-17T19:03:33.768Z,23.8
2022-10-17T19:05:37.177Z,27.6
2022-10-17T19:09:44.035Z,22.3
2022-10-17T19:11:47.474Z,25.5
2022-10-17T19:13:50.913Z,25.9
2022-10-17T19:15:54.367Z,24
2022-10-17T19:18:00.908Z,24.5
2022-10-17T19:20:04.392Z,26.1
2022-10-17T19:22:07.795Z,25.7
2022-10-17T19:24:11.213Z,25.7
2022-10-17T19:26:14.692Z,26.7
2022-10-17T19:28:18.147Z,26.3
2022-10-17T19:30:21.606Z,29.2
2022-10-17T19:38:38.435Z,27.9
2022-10-17T19:40:41.867Z,29.4
2022-10-17T19:42:45.333Z,28.9
2022-10-17T19:44:48.794Z,28.9
2022-10-17T19:46:55.326Z,31
2022-10-17T19:48:58.793Z,30.9
2022-10-17T19:51:02.243Z,31.9
2022-10-17T19:53:26.279Z,36.3
2022-10-17T19:55:29.716Z,32.6
2022-10-17T19:57:33.150Z,34.6
2022-10-17T19:59:39.702Z,33.7
2022-10-17T20:01:43.332Z,29.9
2022-10-17T20:03:46.604Z,30.2
2022-10-17T20:05:50.063Z,32.6
2022-10-17T20:07:53.530Z,30.1
2022-10-17T20:09:56.945Z,30.8
2022-10-17T20:12:00.382Z,33.2
2022-10-17T20:14:06.907Z,34.6
2022-10-17T20:16:10.353Z,32.3
2022-10-17T20:18:13.783Z,31.8
2022-10-17T20:20:17.257Z,32.8
2022-10-17T20:22:20.701Z,31.6
2022-10-17T20:24:24.141Z,32.6
2022-10-17T20:26:37.637Z,32.5
2022-10-17T20:28:34.148Z,35.8
2022-10-17T20:30:37.561Z,33
2022-10-17T20:34:44.426Z,32.8
2022-10-17T20:36:47.883Z,33.4
2022-10-17T20:40:54.718Z,33.9
2022-10-17T20:43:01.270Z,36.6
2022-10-17T20:45:04.688Z,32
2022-10-17T20:47:15.963Z,31.6
2022-10-17T20:48:11.370Z,32.6
2022-10-17T20:50:14.840Z,33.3
2022-10-17T20:56:28.177Z,32
2022-10-17T20:58:31.582Z,31.1
2022-10-17T21:02:38.451Z,30.6
2022-10-17T21:06:45.299Z,30.1
2022-10-17T21:08:48.720Z,31.9
2022-10-17T21:10:55.231Z,32.2
2022-10-17T21:12:58.896Z,31
2022-10-17T21:23:15.665Z,29.9
2022-10-17T21:27:25.619Z,32.3
2022-10-17T21:29:29.077Z,31.5
2022-10-17T21:33:35.941Z,33.1
2022-10-17T21:39:49.372Z,33
2022-10-17T21:43:56.256Z,32.2
2022-10-17T21:44:59.507Z,34.1
2022-10-17T21:47:02.948Z,32.5
2022-10-17T21:49:06.373Z,32.1
2022-10-17T21:51:09.828Z,31.8
2022-10-17T21:53:16.325Z,32.2
2022-10-17T21:55:19.810Z,29.6
2022-10-17T21:57:23.220Z,29.3
2022-10-17T21:59:26.668Z,31.3
2022-10-17T22:01:30.177Z,30.9
2022-10-17T22:03:33.536Z,31.5
2022-10-17T22:05:36.965Z,30.3
2022-10-17T22:07:43.522Z,32.2
2022-10-17T22:09:46.961Z,32.3
2022-10-17T22:11:50.408Z,32
2022-10-17T22:13:53.843Z,30.9
2022-10-17T22:15:57.281Z,31.4
2022-10-17T22:26:17.670Z,32.2
2022-10-17T22:28:21.099Z,31.4
2022-10-17T22:30:24.529Z,30.9
2022-10-17T22:32:27.963Z,33.7
2022-10-17T22:34:31.419Z,30
2022-10-17T22:36:37.992Z,30.7
2022-10-17T22:38:41.429Z,30.5
2022-10-17T22:40:44.873Z,32
2022-10-17T22:41:48.155Z,32.3
2022-10-17T22:43:51.578Z,32.1
2022-10-17T22:45:55.041Z,30.7
2022-10-17T22:47:58.489Z,31.9
2022-10-17T22:50:05.046Z,34.6
2022-10-17T22:52:08.505Z,32
2022-10-17T22:54:11.952Z,35.5
2022-10-17T22:56:15.408Z,30.4
2022-10-17T22:58:18.888Z,32.4
2022-10-17T23:00:22.433Z,30.5
2022-10-17T23:02:25.814Z,31.8
2022-10-17T23:04:32.364Z,33.1
2022-10-17T23:06:35.835Z,33.5
2022-10-17T23:08:39.273Z,31.4
2022-10-17T23:10:42.709Z,30.4
2022-10-17T23:12:46.197Z,30.9
2022-10-17T23:16:53.107Z,30.8
2022-10-17T23:18:59.644Z,32.5
2022-10-17T23:21:03.342Z,31.1
2022-10-17T23:27:13.472Z,27.3
2022-10-17T23:29:16.921Z,28.2
2022-10-17T23:33:26.961Z,28.4
2022-10-17T23:35:30.576Z,26.8
2022-10-17T23:37:33.834Z,28.2
2022-10-17T23:39:59.370Z,28.6
2022-10-17T23:42:01.547Z,28.1
2022-10-17T23:44:04.956Z,24.9
2022-10-17T23:46:11.489Z,23.9
2022-10-17T23:48:14.925Z,25.2
2022-10-17T23:50:18.372Z,25.2
2022-10-17T23:52:21.812Z,25.8
2022-10-17T23:54:25.261Z,23.3
2022-10-17T23:56:28.739Z,22.3
2022-10-17T23:58:32.196Z,23.4
